createdAt,value
2018-07-02T00:02:43.461Z,99.90
2018-07-02T00:05:12.525Z,99.90
2018-07-02T00:07:41.604Z,99.90
2018-07-02T00:10:10.879Z,99.90
2018-07-02T00:12:39.976Z,99.90
2018-07-02T00:15:09.023Z,99.90
2018-07-02T00:17:38.077Z,99.90
2018-07-02T00:20:07.974Z,99.90
2018-07-02T00:22:37.024Z,99.90
2018-07-02T00:25:06.088Z,99.90
2018-07-02T00:27:35.164Z,99.90
2018-07-02T00:30:04.267Z,99.90
2018-07-02T00:32:33.288Z,99.90
2018-07-02T00:35:02.372Z,99.90
2018-07-02T00:37:31.412Z,99.90
2018-07-02T00:40:00.460Z,99.90
2018-07-02T00:42:29.554Z,99.90
2018-07-02T00:44:58.564Z,99.90
2018-07-02T00:47:27.617Z,99.90
2018-07-02T00:49:56.661Z,99.90
2018-07-02T00:52:25.712Z,99.90
2018-07-02T00:54:54.775Z,99.90
2018-07-02T00:57:23.833Z,99.90
2018-07-02T00:59:52.928Z,99.90
2018-07-02T01:02:21.996Z,99.90
2018-07-02T01:04:51.084Z,99.90
2018-07-02T01:07:20.171Z,99.90
2018-07-02T01:09:49.237Z,99.90
2018-07-02T01:12:18.275Z,99.90
2018-07-02T01:14:47.320Z,99.90
2018-07-02T01:17:16.378Z,99.90
2018-07-02T01:19:45.428Z,99.90
2018-07-02T01:22:14.447Z,99.90
2018-07-02T01:24:43.501Z,99.90
2018-07-02T01:27:12.561Z,99.90
2018-07-02T01:29:41.616Z,99.90
2018-07-02T01:32:10.668Z,99.90
2018-07-02T01:34:39.727Z,99.90
2018-07-02T01:37:08.812Z,99.90
2018-07-02T01:39:37.884Z,99.90
2018-07-02T01:42:06.974Z,99.90
2018-07-02T01:44:35.983Z,99.90
2018-07-02T01:47:05.445Z,99.90
2018-07-02T01:49:34.495Z,99.90
2018-07-02T01:52:03.560Z,99.90
2018-07-02T01:54:32.587Z,99.90
2018-07-02T01:57:01.672Z,99.90
2018-07-02T01:59:30.700Z,99.90
2018-07-02T02:01:59.797Z,99.90
2018-07-02T02:04:28.833Z,99.90
2018-07-02T02:06:57.900Z,99.90
2018-07-02T02:09:26.927Z,99.90
2018-07-02T02:11:56.008Z,99.90
2018-07-02T02:14:25.044Z,99.90
2018-07-02T02:16:54.084Z,99.90
2018-07-02T02:19:23.140Z,99.90
2018-07-02T02:21:52.217Z,99.90
2018-07-02T02:24:21.242Z,99.90
2018-07-02T02:26:50.296Z,99.90
2018-07-02T02:29:19.332Z,99.90
2018-07-02T02:31:48.402Z,99.90
2018-07-02T02:34:17.456Z,99.90
2018-07-02T02:36:46.520Z,99.90
2018-07-02T02:39:15.580Z,99.90
2018-07-02T02:41:44.639Z,99.90
2018-07-02T02:44:13.737Z,99.90
2018-07-02T02:49:11.457Z,99.90
2018-07-02T02:51:40.520Z,99.90
2018-07-02T02:54:09.589Z,99.90
2018-07-02T02:56:38.640Z,99.90
2018-07-02T02:59:07.710Z,99.90
2018-07-02T03:01:36.739Z,99.90
2018-07-02T03:04:05.806Z,99.90
2018-07-02T03:06:34.841Z,99.90
2018-07-02T03:09:05.684Z,99.90
2018-07-02T03:11:34.767Z,99.90
2018-07-02T03:14:03.861Z,99.90
2018-07-02T03:16:32.948Z,99.90
2018-07-02T03:19:02.010Z,99.90
2018-07-02T03:21:31.084Z,99.90
2018-07-02T03:26:28.776Z,99.90
2018-07-02T03:28:57.931Z,99.90
2018-07-02T03:31:27.014Z,99.90
2018-07-02T03:33:56.037Z,99.90
2018-07-02T03:36:25.074Z,99.90
2018-07-02T03:38:54.096Z,99.90
2018-07-02T03:41:23.152Z,99.90
2018-07-02T03:43:52.209Z,99.90
2018-07-02T03:46:21.396Z,99.90
2018-07-02T03:48:50.434Z,99.90
2018-07-02T03:51:19.509Z,99.90
2018-07-02T03:53:48.588Z,99.90
2018-07-02T03:56:17.634Z,99.90
2018-07-02T03:58:46.655Z,99.90
2018-07-02T04:01:15.754Z,99.90
2018-07-02T04:03:44.787Z,99.90
2018-07-02T04:06:13.863Z,99.90
2018-07-02T04:08:42.987Z,99.90
2018-07-02T04:11:12.053Z,99.90
2018-07-02T04:13:41.147Z,99.90
2018-07-02T04:16:10.189Z,99.90
2018-07-02T04:18:39.312Z,99.90
2018-07-02T04:21:08.431Z,99.90
2018-07-02T04:23:37.504Z,99.90
2018-07-02T04:26:06.596Z,99.90
2018-07-02T04:28:35.663Z,99.90
2018-07-02T04:31:04.690Z,99.90
2018-07-02T04:33:33.758Z,99.90
2018-07-02T04:36:02.786Z,99.90
2018-07-02T04:38:31.850Z,99.90
2018-07-02T04:41:00.907Z,99.90
2018-07-02T04:43:30.647Z,99.90
2018-07-02T04:45:59.682Z,99.90
2018-07-02T04:48:28.730Z,99.90
2018-07-02T04:50:57.814Z,99.90
2018-07-02T04:53:26.896Z,99.90
2018-07-02T04:55:55.923Z,99.90
2018-07-02T04:58:24.970Z,99.90
2018-07-02T05:00:54.057Z,99.90
2018-07-02T05:03:23.099Z,99.90
2018-07-02T05:05:52.136Z,99.90
2018-07-02T05:08:21.128Z,99.90
2018-07-02T05:10:50.120Z,99.90
2018-07-02T05:13:19.726Z,99.90
2018-07-02T05:15:48.733Z,99.90
2018-07-02T05:18:17.756Z,99.90
2018-07-02T05:20:46.804Z,99.90
2018-07-02T05:23:15.845Z,99.90
2018-07-02T05:25:44.940Z,99.90
2018-07-02T05:28:14.149Z,99.90
2018-07-02T05:30:43.055Z,99.90
2018-07-02T05:33:12.060Z,99.90
2018-07-02T05:35:41.076Z,99.90
2018-07-02T05:38:10.133Z,99.90
2018-07-02T05:40:39.164Z,99.90
2018-07-02T05:43:08.264Z,99.90
2018-07-02T05:45:37.308Z,99.90
2018-07-02T05:48:06.328Z,99.90
2018-07-02T05:50:35.364Z,99.90
2018-07-02T05:53:04.432Z,99.90
2018-07-02T05:55:33.487Z,99.90
2018-07-02T05:58:02.566Z,99.90
2018-07-02T06:00:31.611Z,99.90
2018-07-02T06:03:00.827Z,99.90
2018-07-02T06:05:29.679Z,99.90
2018-07-02T06:07:58.789Z,99.90
2018-07-02T06:10:27.822Z,99.90
2018-07-02T06:12:56.858Z,99.90
2018-07-02T06:15:26.001Z,99.90
2018-07-02T06:17:55.021Z,99.90
2018-07-02T06:20:24.073Z,99.90
2018-07-02T06:22:53.116Z,99.90
2018-07-02T06:25:22.242Z,99.90
2018-07-02T06:27:51.249Z,99.90
2018-07-02T06:30:20.309Z,99.90
2018-07-02T06:32:49.332Z,99.90
2018-07-02T06:35:18.341Z,99.90
2018-07-02T06:37:47.369Z,99.90
2018-07-02T06:40:16.444Z,99.90
2018-07-02T06:42:45.514Z,99.90
2018-07-02T06:45:14.571Z,99.90
2018-07-02T06:47:43.629Z,97.40
2018-07-02T06:50:12.657Z,96.40
2018-07-02T06:52:41.700Z,97.40
2018-07-02T06:55:11.047Z,98.40
2018-07-02T06:57:40.128Z,97.80
2018-07-02T07:00:09.178Z,96.10
2018-07-02T07:02:38.204Z,94.70
2018-07-02T07:05:07.351Z,94.90
2018-07-02T07:07:36.417Z,93.70
2018-07-02T07:10:05.776Z,93.60
2018-07-02T07:12:34.815Z,93.90
2018-07-02T07:15:04.277Z,92.90
2018-07-02T07:17:33.361Z,91.50
2018-07-02T07:20:02.425Z,91.10
2018-07-02T07:25:00.199Z,90.00
2018-07-02T07:27:29.428Z,91.10
2018-07-02T07:29:58.576Z,90.50
2018-07-02T07:32:27.669Z,89.60
2018-07-02T07:34:56.723Z,87.60
2018-07-02T07:37:26.062Z,86.20
2018-07-02T07:39:55.104Z,84.10
2018-07-02T07:42:24.132Z,83.30
2018-07-02T07:44:53.186Z,83.70
2018-07-02T07:47:22.232Z,84.10
2018-07-02T07:49:51.308Z,80.20
2018-07-02T07:52:21.524Z,81.50
2018-07-02T07:54:52.079Z,81.20
2018-07-02T07:57:22.790Z,76.10
2018-07-02T07:59:53.040Z,75.40
2018-07-02T08:02:22.152Z,73.90
2018-07-02T08:04:51.232Z,74.00
2018-07-02T08:07:20.686Z,74.70
2018-07-02T08:09:49.786Z,68.40
2018-07-02T08:12:18.829Z,67.10
2018-07-02T08:14:47.853Z,66.00
2018-07-02T08:17:16.974Z,67.60
2018-07-02T08:19:46.397Z,67.10
2018-07-02T08:22:15.979Z,67.60
2018-07-02T08:24:45.284Z,66.90
2018-07-02T08:27:14.530Z,66.40
2018-07-02T08:29:43.749Z,67.10
2018-07-02T08:32:12.752Z,66.20
2018-07-02T08:37:10.437Z,66.40
2018-07-02T08:39:39.509Z,65.20
2018-07-02T08:42:08.686Z,65.40
2018-07-02T08:44:37.732Z,66.40
2018-07-02T08:49:35.871Z,61.90
2018-07-02T08:52:04.923Z,61.20
2018-07-02T08:54:33.982Z,62.00
2018-07-02T08:57:03.006Z,59.60
2018-07-02T08:59:32.080Z,60.50
2018-07-02T09:02:01.126Z,61.20
2018-07-02T09:04:30.629Z,61.10
2018-07-02T09:06:59.628Z,60.40
2018-07-02T09:09:28.668Z,60.30
2018-07-02T09:11:57.713Z,60.40
2018-07-02T09:14:26.741Z,59.90
2018-07-02T09:16:55.784Z,61.00
2018-07-02T09:19:24.892Z,59.80
2018-07-02T09:24:22.551Z,60.00
2018-07-02T09:26:51.629Z,59.00
2018-07-02T09:29:21.034Z,59.90
2018-07-02T09:31:50.092Z,57.60
2018-07-02T09:34:19.120Z,59.40
2018-07-02T09:39:16.817Z,58.70
2018-07-02T09:41:45.868Z,59.00
2018-07-02T09:44:15.022Z,59.60
2018-07-02T09:46:44.085Z,57.70
2018-07-02T09:51:41.800Z,57.40
2018-07-02T09:54:10.828Z,58.30
2018-07-02T09:56:40.771Z,57.70
2018-07-02T09:59:09.840Z,57.10
2018-07-02T10:01:38.916Z,57.30
2018-07-02T10:04:08.377Z,57.90
2018-07-02T10:06:37.494Z,58.90
2018-07-02T10:09:09.593Z,57.30
2018-07-02T10:11:38.717Z,58.20
2018-07-02T10:14:07.889Z,58.10
2018-07-02T10:16:36.998Z,58.10
2018-07-02T10:19:06.056Z,58.20
2018-07-02T10:21:35.350Z,56.20
2018-07-02T10:24:04.396Z,57.80
2018-07-02T10:26:33.464Z,57.70
2018-07-02T10:29:02.572Z,57.80
2018-07-02T10:31:31.604Z,58.50
2018-07-02T10:34:00.619Z,58.10
2018-07-02T10:36:29.684Z,58.40
2018-07-02T10:38:58.726Z,57.90
2018-07-02T10:41:27.800Z,57.00
2018-07-02T10:43:56.816Z,56.20
2018-07-02T10:46:25.950Z,57.20
2018-07-02T10:48:54.995Z,56.40
2018-07-02T10:51:24.106Z,56.70
2018-07-02T10:53:53.145Z,57.60
2018-07-02T10:56:22.201Z,57.40
2018-07-02T10:58:51.307Z,58.30
2018-07-02T11:01:20.404Z,57.00
2018-07-02T11:03:49.491Z,58.50
2018-07-02T11:06:18.539Z,57.00
2018-07-02T11:08:47.562Z,58.30
2018-07-02T11:11:16.704Z,57.90
2018-07-02T11:13:46.050Z,59.40
2018-07-02T11:16:15.091Z,57.90
2018-07-02T11:18:44.140Z,58.50
2018-07-02T11:21:13.212Z,57.80
2018-07-02T11:23:42.407Z,57.40
2018-07-02T11:26:11.473Z,56.10
2018-07-02T11:28:40.488Z,57.10
2018-07-02T11:33:38.165Z,56.90
2018-07-02T11:38:35.843Z,57.40
2018-07-02T11:41:04.946Z,56.80
2018-07-02T11:43:40.519Z,57.80
2018-07-02T11:46:09.625Z,57.50
2018-07-02T11:48:38.896Z,57.00
2018-07-02T11:51:07.962Z,58.30
2018-07-02T11:53:36.969Z,59.00
2018-07-02T11:56:06.029Z,57.30
2018-07-02T11:58:35.069Z,56.50
2018-07-02T12:01:04.180Z,57.00
2018-07-02T12:03:33.223Z,57.40
2018-07-02T12:06:02.269Z,56.80
2018-07-02T12:08:31.284Z,54.80
2018-07-02T12:11:00.339Z,55.90
2018-07-02T12:13:29.419Z,56.20
2018-07-02T12:15:58.436Z,56.30
2018-07-02T12:20:56.172Z,57.30
2018-07-02T12:23:25.281Z,57.70
2018-07-02T12:25:54.304Z,57.30
2018-07-02T12:28:23.344Z,56.00
2018-07-02T12:30:52.394Z,55.80
2018-07-02T12:35:50.111Z,55.20
2018-07-02T12:38:19.377Z,54.20
2018-07-02T12:43:17.067Z,53.80
2018-07-02T12:45:46.086Z,52.90
2018-07-02T12:48:15.155Z,52.40
2018-07-02T12:50:44.201Z,53.90
2018-07-02T12:53:14.164Z,53.90
2018-07-02T12:55:43.260Z,52.90
2018-07-02T12:58:12.310Z,53.50
2018-07-02T13:00:41.351Z,54.50
2018-07-02T13:03:10.403Z,53.70
2018-07-02T13:05:39.480Z,52.70
2018-07-02T13:08:08.524Z,53.00
2018-07-02T13:10:37.568Z,55.20
2018-07-02T13:13:06.674Z,55.60
2018-07-02T13:15:35.816Z,57.00
2018-07-02T13:18:05.336Z,55.20
2018-07-02T13:20:34.492Z,55.20
2018-07-02T13:23:03.659Z,54.90
2018-07-02T13:25:32.720Z,55.40
2018-07-02T13:28:01.897Z,56.00
2018-07-02T13:30:31.331Z,54.50
2018-07-02T13:33:00.605Z,54.80
2018-07-02T13:35:29.680Z,55.60
2018-07-02T13:37:58.732Z,55.80
2018-07-02T13:40:27.760Z,54.30
2018-07-02T13:42:56.777Z,54.50
2018-07-02T13:45:25.896Z,54.50
2018-07-02T13:47:54.904Z,54.10
2018-07-02T13:50:23.967Z,53.80
2018-07-02T13:52:53.044Z,54.10
2018-07-02T13:55:22.126Z,53.50
2018-07-02T13:57:51.184Z,54.10
2018-07-02T14:00:20.257Z,53.60
2018-07-02T14:02:49.256Z,51.80
2018-07-02T14:05:18.377Z,51.40
2018-07-02T14:07:48.364Z,52.00
2018-07-02T14:10:17.389Z,52.30
2018-07-02T14:12:46.555Z,52.20
2018-07-02T14:15:15.664Z,51.90
2018-07-02T14:17:44.748Z,51.10
2018-07-02T14:20:13.795Z,48.50
2018-07-02T14:22:42.946Z,50.10
2018-07-02T14:25:12.024Z,50.60
2018-07-02T14:27:41.097Z,49.50
2018-07-02T14:30:10.206Z,48.90
2018-07-02T14:35:07.958Z,48.20
2018-07-02T14:37:36.993Z,48.70
2018-07-02T14:40:06.171Z,49.40
2018-07-02T14:47:32.975Z,48.00
2018-07-02T14:50:02.071Z,49.30
2018-07-02T14:52:31.126Z,49.60
2018-07-02T14:55:00.223Z,49.60
2018-07-02T14:57:29.300Z,48.90
2018-07-02T14:59:58.516Z,49.10
2018-07-02T15:02:27.590Z,49.60
2018-07-02T15:04:56.651Z,48.80
2018-07-02T15:07:25.773Z,49.70
2018-07-02T15:09:54.852Z,49.80
2018-07-02T15:12:23.900Z,50.00
2018-07-02T15:14:52.961Z,48.40
2018-07-02T15:17:22.061Z,48.40
2018-07-02T15:19:51.111Z,47.20
2018-07-02T15:22:20.183Z,48.00
2018-07-02T15:24:49.304Z,47.70
2018-07-02T15:27:18.352Z,48.40
2018-07-02T15:29:47.448Z,48.00
2018-07-02T15:32:16.555Z,47.70
2018-07-02T15:34:45.642Z,46.50
2018-07-02T15:37:14.669Z,46.40
2018-07-02T15:39:43.814Z,47.40
2018-07-02T15:42:12.892Z,48.20
2018-07-02T15:44:41.947Z,47.40
2018-07-02T15:47:10.969Z,47.70
2018-07-02T15:49:40.021Z,47.40
2018-07-02T15:52:09.100Z,48.70
2018-07-02T15:54:38.229Z,48.20
2018-07-02T15:57:07.297Z,47.40
2018-07-02T15:59:36.337Z,48.00
2018-07-02T16:02:05.415Z,48.40
2018-07-02T16:07:03.220Z,48.40
2018-07-02T16:09:32.258Z,47.00
2018-07-02T16:12:01.332Z,46.20
2018-07-02T16:14:30.381Z,47.80
2018-07-02T16:19:28.198Z,47.00
2018-07-02T16:21:57.221Z,47.20
2018-07-02T16:24:26.280Z,47.60
2018-07-02T16:26:55.332Z,46.30
2018-07-02T16:29:24.433Z,46.60
2018-07-02T16:31:53.465Z,47.60
2018-07-02T16:34:22.570Z,46.80
2018-07-02T16:36:51.644Z,47.80
2018-07-02T16:39:20.722Z,47.20
2018-07-02T16:41:49.729Z,47.00
2018-07-02T16:44:18.775Z,47.00
2018-07-02T16:46:47.895Z,46.80
2018-07-02T16:51:45.611Z,48.60
2018-07-02T16:54:14.620Z,48.00
2018-07-02T16:56:43.717Z,47.40
2018-07-02T16:59:12.770Z,47.90
2018-07-02T17:01:41.840Z,48.20
2018-07-02T17:04:10.925Z,48.10
2018-07-02T17:06:39.998Z,48.30
2018-07-02T17:09:10.894Z,48.80
2018-07-02T17:11:40.500Z,49.50
2018-07-02T17:14:10.309Z,48.60
2018-07-02T17:16:40.204Z,49.30
2018-07-02T17:19:09.428Z,49.90
2018-07-02T17:21:38.578Z,49.50
2018-07-02T17:24:07.696Z,49.50
2018-07-02T17:26:36.793Z,50.30
2018-07-02T17:29:05.925Z,50.40
2018-07-02T17:31:34.974Z,50.80
2018-07-02T17:34:04.125Z,50.00
2018-07-02T17:36:33.216Z,49.90
2018-07-02T17:39:02.346Z,50.10
2018-07-02T17:41:31.464Z,50.20
2018-07-02T17:44:00.491Z,49.80
2018-07-02T17:46:29.549Z,50.80
2018-07-02T17:48:59.296Z,50.70
2018-07-02T17:51:28.608Z,51.00
2018-07-02T17:53:57.669Z,50.90
2018-07-02T17:56:26.736Z,51.00
2018-07-02T17:58:55.801Z,51.40
2018-07-02T18:01:24.848Z,52.20
2018-07-02T18:03:53.892Z,51.80
2018-07-02T18:06:22.948Z,52.30
2018-07-02T18:08:52.183Z,52.20
2018-07-02T18:11:21.554Z,52.80
2018-07-02T18:13:50.879Z,52.70
2018-07-02T18:16:19.931Z,52.70
2018-07-02T18:18:49.004Z,53.10
2018-07-02T18:21:18.103Z,53.80
2018-07-02T18:23:47.729Z,54.00
2018-07-02T18:26:16.796Z,54.00
2018-07-02T18:28:45.964Z,54.30
2018-07-02T18:31:15.162Z,54.70
2018-07-02T18:33:44.235Z,54.90
2018-07-02T18:36:13.285Z,55.30
2018-07-02T18:38:42.352Z,55.50
2018-07-02T18:41:11.551Z,56.20
2018-07-02T18:43:40.640Z,56.40
2018-07-02T18:46:09.716Z,57.20
2018-07-02T18:53:36.555Z,58.90
2018-07-02T18:56:05.892Z,59.20
2018-07-02T18:58:35.260Z,59.50
2018-07-02T19:01:04.691Z,59.20
2018-07-02T19:03:34.273Z,60.30
2018-07-02T19:06:03.843Z,60.50
2018-07-02T19:08:33.379Z,61.50
2018-07-02T19:11:02.564Z,61.20
2018-07-02T19:13:32.138Z,62.30
2018-07-02T19:16:01.244Z,62.90
2018-07-02T19:18:30.414Z,64.10
2018-07-02T19:20:59.712Z,65.40
2018-07-02T19:23:28.966Z,65.40
2018-07-02T19:25:58.171Z,65.70
2018-07-02T19:28:27.430Z,65.80
2018-07-02T19:30:56.768Z,66.10
2018-07-02T19:33:25.982Z,67.10
2018-07-02T19:35:55.355Z,67.90
2018-07-02T19:38:24.516Z,67.50
2018-07-02T19:40:53.828Z,69.20
2018-07-02T19:43:25.014Z,69.20
2018-07-02T19:45:54.228Z,69.70
2018-07-02T19:48:23.283Z,69.80
2018-07-02T19:50:52.345Z,70.10
2018-07-02T19:53:21.360Z,72.30
2018-07-02T19:55:50.577Z,72.70
2018-07-02T19:58:19.619Z,72.90
2018-07-02T20:00:48.677Z,72.90
2018-07-02T20:03:17.796Z,73.50
2018-07-02T20:05:46.989Z,74.80
2018-07-02T20:08:16.069Z,75.10
2018-07-02T20:10:45.132Z,74.90
2018-07-02T20:13:14.210Z,75.70
2018-07-02T20:15:43.369Z,76.10
2018-07-02T20:18:12.424Z,76.30
2018-07-02T20:20:41.523Z,77.50
2018-07-02T20:23:10.612Z,79.40
2018-07-02T20:25:39.689Z,79.90
2018-07-02T20:28:08.750Z,80.30
2018-07-02T20:30:37.773Z,81.20
2018-07-02T20:33:06.836Z,81.90
2018-07-02T20:35:35.857Z,82.20
2018-07-02T20:38:05.014Z,82.60
2018-07-02T20:40:34.041Z,82.90
2018-07-02T20:43:03.136Z,83.90
2018-07-02T20:45:32.352Z,84.50
2018-07-02T20:48:01.733Z,85.10
2018-07-02T20:50:30.778Z,84.90
2018-07-02T20:52:59.947Z,85.60
2018-07-02T20:55:29.146Z,86.40
2018-07-02T20:57:58.285Z,87.00
2018-07-02T21:00:31.142Z,87.30
2018-07-02T21:03:01.908Z,88.10
2018-07-02T21:05:31.572Z,88.80
2018-07-02T21:08:00.678Z,88.60
2018-07-02T21:10:29.837Z,89.30
2018-07-02T21:12:58.860Z,90.40
2018-07-02T21:15:27.949Z,90.70
2018-07-02T21:17:57.205Z,90.90
2018-07-02T21:20:26.350Z,91.20
2018-07-02T21:22:55.628Z,91.50
2018-07-02T21:25:24.753Z,92.20
2018-07-02T21:27:53.859Z,92.40
2018-07-02T21:30:22.903Z,92.50
2018-07-02T21:32:52.022Z,92.90
2018-07-02T21:35:21.027Z,92.90
2018-07-02T21:37:50.085Z,93.60
2018-07-02T21:40:19.125Z,93.60
2018-07-02T21:42:48.259Z,93.90
2018-07-02T21:45:17.388Z,94.50
2018-07-02T21:47:46.429Z,94.80
2018-07-02T21:50:15.453Z,95.30
2018-07-02T21:52:44.544Z,96.10
2018-07-02T21:55:13.571Z,95.90
2018-07-02T21:57:42.640Z,96.00
2018-07-02T22:00:13.235Z,96.40
2018-07-02T22:02:42.753Z,96.80
2018-07-02T22:05:11.851Z,97.20
2018-07-02T22:07:41.072Z,97.90
2018-07-02T22:10:10.119Z,98.00
2018-07-02T22:12:39.203Z,98.70
2018-07-02T22:15:08.250Z,99.10
2018-07-02T22:17:37.304Z,99.20
2018-07-02T22:20:06.976Z,99.50
2018-07-02T22:22:36.060Z,99.90
2018-07-02T22:25:05.536Z,99.90
2018-07-02T22:27:34.568Z,99.90
2018-07-02T22:30:03.682Z,99.90
2018-07-02T22:32:32.708Z,99.90
2018-07-02T22:35:01.820Z,99.90
2018-07-02T22:37:30.852Z,99.90
2018-07-02T22:39:59.883Z,99.90
2018-07-02T22:42:29.105Z,99.90
2018-07-02T22:44:58.163Z,99.90
2018-07-02T22:47:27.179Z,99.90
2018-07-02T22:49:56.224Z,99.90
2018-07-02T22:52:25.231Z,99.90
2018-07-02T22:54:54.284Z,99.90
2018-07-02T22:57:23.499Z,99.90
2018-07-02T22:59:52.541Z,99.90
2018-07-02T23:02:21.677Z,99.90
2018-07-02T23:04:50.727Z,99.90
2018-07-02T23:07:19.737Z,99.90
2018-07-02T23:09:48.783Z,99.90
2018-07-02T23:12:17.807Z,99.90
2018-07-02T23:14:46.856Z,99.90
2018-07-02T23:17:15.864Z,99.90
2018-07-02T23:19:44.900Z,99.90
2018-07-02T23:22:13.905Z,99.90
2018-07-02T23:24:43.031Z,99.90
2018-07-02T23:27:12.040Z,99.90
2018-07-02T23:29:41.069Z,99.90
2018-07-02T23:32:10.089Z,99.90
2018-07-02T23:34:39.128Z,99.90
2018-07-02T23:37:08.216Z,99.90
2018-07-02T23:39:37.292Z,99.90
2018-07-02T23:42:06.324Z,99.90
2018-07-02T23:47:04.010Z,99.90
2018-07-02T23:52:01.688Z,99.90
2018-07-02T23:54:30.735Z,99.90
2018-07-02T23:56:59.780Z,99.90
2018-07-02T23:59:28.829Z,99.90
